Time;durP1;ratioP1;P1;durP2;ratioP2;P2;SDS_P1;SDS_P2;PMS_P1;PMS_P2;Temp;Humidity;BMP_temperature;BMP_pressure;BME280_temperature;BME280_humidity;BME280_pressure;Samples;Min_cycle;Max_cycle;Signal;HPM_P1;HPM_P2
2022/05/29 00:00:10;;;;;;;0.70;0.50;;;9.90;99.90;;;;;;4969392;28;20432;-70
2022/05/29 00:02:36;;;;;;;0.80;0.50;;;9.90;99.90;;;;;;4969529;28;20418;-70
2022/05/29 00:05:02;;;;;;;0.80;0.50;;;9.90;99.90;;;;;;4985125;28;20445;-71
2022/05/29 00:07:27;;;;;;;0.70;0.50;;;9.90;99.90;;;;;;4968385;28;20167;-70
2022/05/29 00:09:53;;;;;;;0.70;0.50;;;9.90;99.90;;;;;;4969407;28;20521;-70
2022/05/29 00:12:20;;;;;;;0.70;0.50;;;9.80;99.90;;;;;;4968805;28;20198;-70
2022/05/29 00:14:48;;;;;;;0.70;0.50;;;9.80;99.90;;;;;;4970477;28;20167;-70
2022/05/29 00:17:14;;;;;;;0.70;0.50;;;9.80;99.90;;;;;;4969510;29;20449;-70
2022/05/29 00:19:40;;;;;;;0.80;0.50;;;9.70;99.90;;;;;;4970319;28;20430;-70
2022/05/29 00:22:06;;;;;;;0.80;0.50;;;9.70;99.90;;;;;;4969764;28;20418;-70
2022/05/29 00:24:32;;;;;;;0.70;0.50;;;9.70;99.90;;;;;;4970660;28;20178;-69
2022/05/29 00:26:58;;;;;;;0.70;0.50;;;9.60;99.90;;;;;;4971359;28;20449;-71
2022/05/29 00:29:24;;;;;;;0.77;0.50;;;9.60;99.90;;;;;;4971338;28;20434;-70
2022/05/29 00:31:50;;;;;;;0.70;0.50;;;9.60;99.90;;;;;;4970643;28;20190;-70
2022/05/29 00:34:15;;;;;;;0.80;0.50;;;9.50;99.90;;;;;;4971555;28;20229;-71
2022/05/29 00:36:44;;;;;;;0.80;0.50;;;9.50;99.90;;;;;;4971307;28;20421;-70
2022/05/29 00:39:11;;;;;;;0.77;0.53;;;9.50;99.90;;;;;;4970435;28;20226;-71
2022/05/29 00:41:39;;;;;;;0.70;0.50;;;9.50;99.90;;;;;;4985523;28;20428;-69
2022/05/29 00:44:13;;;;;;;0.80;0.50;;;9.40;99.90;;;;;;4971859;28;20446;-70
2022/05/29 00:46:42;;;;;;;0.70;0.50;;;9.40;99.90;;;;;;4969473;28;20410;-71
2022/05/29 00:49:10;;;;;;;0.70;0.50;;;9.40;99.90;;;;;;4967017;28;20418;-77
2022/05/29 00:51:42;;;;;;;0.80;0.50;;;9.30;99.90;;;;;;4970721;28;20446;-71
2022/05/29 00:54:08;;;;;;;0.80;0.50;;;9.30;99.90;;;;;;4970029;28;20418;-70
2022/05/29 00:56:37;;;;;;;0.70;0.50;;;9.30;99.90;;;;;;4971315;28;20924;-69
2022/05/29 00:59:06;;;;;;;0.70;0.50;;;9.30;99.90;;;;;;4969694;28;20434;-70
2022/05/29 01:01:32;;;;;;;0.70;0.50;;;9.20;99.90;;;;;;4970169;28;20398;-71
2022/05/29 01:03:58;;;;;;;0.70;0.50;;;9.30;99.90;;;;;;4970899;28;20417;-69
2022/05/29 01:06:23;;;;;;;0.70;0.50;;;9.30;99.90;;;;;;4970114;28;20229;-70
2022/05/29 01:08:49;;;;;;;0.70;0.50;;;9.20;99.90;;;;;;4970085;28;20237;-71
2022/05/29 01:11:30;;;;;;;0.70;0.50;;;9.30;99.90;;;;;;4969152;28;20201;-70
2022/05/29 01:14:24;;;;;;;0.70;0.50;;;9.20;99.90;;;;;;4969826;28;20166;-69
2022/05/29 01:17:07;;;;;;;0.70;0.50;;;9.20;99.90;;;;;;4970073;28;20442;-70
2022/05/29 01:19:51;;;;;;;0.70;0.50;;;9.20;99.90;;;;;;4969645;28;20466;-70
2022/05/29 01:22:35;;;;;;;0.70;0.50;;;9.20;99.90;;;;;;4968288;28;20425;-71
2022/05/29 01:25:29;;;;;;;0.70;0.50;;;9.10;99.90;;;;;;4969274;28;20421;-70
2022/05/29 01:28:22;;;;;;;0.73;0.50;;;9.20;99.90;;;;;;4968142;29;20414;-69
2022/05/29 01:30:58;;;;;;;0.80;0.77;;;9.20;99.90;;;;;;4971245;28;20422;-70
2022/05/29 01:33:29;;;;;;;2.50;0.97;;;9.20;99.90;;;;;;4969062;28;20457;-70
2022/05/29 01:36:01;;;;;;;0.70;0.50;;;9.20;99.90;;;;;;4968258;28;20614;-70
2022/05/29 01:39:07;;;;;;;1.17;0.70;;;9.30;99.90;;;;;;4969846;28;20409;-70
2022/05/29 01:41:40;;;;;;;0.70;0.50;;;9.30;99.90;;;;;;4967797;29;20445;-71
2022/05/29 01:44:29;;;;;;;0.70;0.50;;;9.30;99.90;;;;;;4967231;28;20433;-70
2022/05/29 01:47:02;;;;;;;0.70;0.50;;;9.40;99.90;;;;;;4967406;28;20426;-71
2022/05/29 01:49:33;;;;;;;0.70;0.50;;;9.40;99.90;;;;;;4968335;28;20430;-70
2022/05/29 01:52:24;;;;;;;0.70;0.50;;;9.40;99.90;;;;;;4968137;28;20545;-71
2022/05/29 01:54:58;;;;;;;0.70;0.50;;;9.30;99.90;;;;;;4967824;28;20421;-70
2022/05/29 01:57:28;;;;;;;0.70;0.50;;;9.30;99.90;;;;;;4967484;28;20450;-69
2022/05/29 01:59:59;;;;;;;0.70;0.50;;;9.30;99.90;;;;;;4968434;28;20430;-69
2022/05/29 02:03:08;;;;;;;0.70;0.50;;;9.20;99.90;;;;;;4967654;28;20489;-71
2022/05/29 02:05:47;;;;;;;0.70;0.50;;;9.20;99.90;;;;;;4962579;29;20456;-70
2022/05/29 02:08:23;;;;;;;0.70;0.50;;;9.10;99.90;;;;;;4966000;28;20413;-71
2022/05/29 02:11:06;;;;;;;0.70;0.50;;;9.10;99.90;;;;;;4966504;28;20433;-70
2022/05/29 02:13:56;;;;;;;0.70;0.50;;;9.10;99.90;;;;;;4967221;28;20482;-69
2022/05/29 02:16:36;;;;;;;0.70;0.50;;;9.00;99.90;;;;;;4968156;28;20815;-70
2022/05/29 02:19:12;;;;;;;0.70;0.50;;;9.00;99.90;;;;;;4967007;29;20424;-69
2022/05/29 02:21:50;;;;;;;0.70;0.50;;;9.00;99.90;;;;;;4966561;29;20928;-69
2022/05/29 02:24:20;;;;;;;0.70;0.50;;;8.90;99.90;;;;;;4968366;28;20858;-69
2022/05/29 02:26:59;;;;;;;1.10;1.00;;;8.90;99.90;;;;;;4968712;28;20445;-69
2022/05/29 02:29:27;;;;;;;0.70;0.50;;;8.90;99.90;;;;;;4968027;29;20477;-69
2022/05/29 02:31:56;;;;;;;0.70;0.50;;;8.90;99.90;;;;;;4967312;28;20544;-70
2022/05/29 02:34:42;;;;;;;0.70;0.50;;;8.90;99.90;;;;;;4968825;28;20468;-70
2022/05/29 02:37:25;;;;;;;0.70;0.50;;;8.80;99.90;;;;;;4967589;28;20434;-70
2022/05/29 02:40:16;;;;;;;0.70;0.50;;;8.90;99.90;;;;;;4968354;28;20979;-70
2022/05/29 02:42:51;;;;;;;0.70;0.50;;;8.90;99.90;;;;;;4968129;28;20435;-70
2022/05/29 02:45:41;;;;;;;0.70;0.50;;;8.90;99.90;;;;;;4967016;28;20401;-70
2022/05/29 02:48:29;;;;;;;0.70;0.50;;;9.00;99.90;;;;;;4966803;28;20429;-70
2022/05/29 02:51:22;;;;;;;0.70;0.50;;;9.00;99.90;;;;;;4967284;28;20425;-70
2022/05/29 02:53:48;;;;;;;0.70;0.50;;;9.10;99.90;;;;;;4965731;28;20421;-71
2022/05/29 02:56:15;;;;;;;0.80;0.60;;;9.10;99.90;;;;;;4966516;28;20449;-71
2022/05/29 02:58:43;;;;;;;0.70;0.50;;;9.20;99.90;;;;;;4965831;28;20179;-71
2022/05/29 03:01:28;;;;;;;0.70;0.50;;;9.20;99.90;;;;;;4966110;29;20437;-68
2022/05/29 03:04:07;;;;;;;0.70;0.50;;;9.30;99.90;;;;;;4965011;29;20417;-70
2022/05/29 03:06:53;;;;;;;0.80;0.60;;;9.40;99.90;;;;;;4964539;28;20414;-70
2022/05/29 03:09:44;;;;;;;0.80;0.60;;;9.40;99.90;;;;;;4964735;28;20417;-70
2022/05/29 03:12:37;;;;;;;0.70;0.50;;;9.50;99.90;;;;;;4965422;28;20540;-71
2022/05/29 03:15:23;;;;;;;0.70;0.50;;;9.60;99.90;;;;;;4966518;28;20554;-71
2022/05/29 03:18:01;;;;;;;0.70;0.50;;;9.60;99.90;;;;;;4967543;28;20442;-71
2022/05/29 03:20:42;;;;;;;0.70;0.50;;;9.70;99.90;;;;;;4967297;28;20469;-70
2022/05/29 03:23:21;;;;;;;0.70;0.50;;;9.70;99.90;;;;;;4967969;28;20421;-70
2022/05/29 03:25:55;;;;;;;0.70;0.50;;;9.70;99.90;;;;;;4969269;28;20477;-71
2022/05/29 03:28:34;;;;;;;0.70;0.50;;;9.70;99.90;;;;;;4967895;28;20795;-71
2022/05/29 03:31:04;;;;;;;0.70;0.50;;;9.80;99.90;;;;;;4968510;28;20520;-70
2022/05/29 03:33:30;;;;;;;0.70;0.50;;;9.80;99.90;;;;;;4966881;29;20472;-70
2022/05/29 03:35:55;;;;;;;0.70;0.50;;;9.80;99.90;;;;;;4966492;28;20422;-71
2022/05/29 03:38:22;;;;;;;0.80;0.67;;;9.90;99.90;;;;;;4968009;28;20174;-71
2022/05/29 03:40:49;;;;;;;0.70;0.50;;;9.90;99.90;;;;;;4966563;28;20198;-71
2022/05/29 03:43:14;;;;;;;0.70;0.50;;;10.00;99.90;;;;;;4982298;28;20418;-70
2022/05/29 03:45:40;;;;;;;1.20;1.10;;;10.00;99.90;;;;;;4966607;28;20416;-70
2022/05/29 03:48:06;;;;;;;0.70;0.50;;;10.00;99.90;;;;;;4967587;28;20656;-70
2022/05/29 03:50:35;;;;;;;0.70;0.50;;;10.10;99.90;;;;;;4967058;28;20194;-70
2022/05/29 03:53:03;;;;;;;0.70;0.50;;;10.10;99.90;;;;;;4965876;28;20461;-70
2022/05/29 03:55:29;;;;;;;0.70;0.50;;;10.20;99.90;;;;;;4964913;28;20417;-71
2022/05/29 03:57:55;;;;;;;0.70;0.50;;;10.20;99.90;;;;;;4965616;28;20429;-70
2022/05/29 04:00:22;;;;;;;0.70;0.50;;;10.30;99.90;;;;;;4966540;28;20438;-70
2022/05/29 04:02:48;;;;;;;0.70;0.50;;;10.30;99.90;;;;;;4964366;28;20603;-70
2022/05/29 04:05:19;;;;;;;0.70;0.50;;;10.40;99.90;;;;;;4979353;28;20417;-70
2022/05/29 04:13:14;;;;;;;0.70;0.50;;;10.50;99.90;;;;;;4964033;29;20460;-70
2022/05/29 04:15:45;;;;;;;0.70;0.50;;;10.60;99.90;;;;;;4962908;28;20410;-70
2022/05/29 04:18:15;;;;;;;0.70;0.50;;;10.60;99.90;;;;;;4961869;28;20198;-71
2022/05/29 04:20:41;;;;;;;0.70;0.50;;;10.70;99.90;;;;;;4965054;28;20421;-71
2022/05/29 04:23:07;;;;;;;0.70;0.50;;;10.70;99.90;;;;;;4975130;28;20424;-70
2022/05/29 04:25:33;;;;;;;0.70;0.60;;;10.70;99.90;;;;;;4960993;28;20409;-70
2022/05/29 04:27:59;;;;;;;0.70;0.50;;;10.70;99.90;;;;;;4960393;28;20174;-71
2022/05/29 04:30:24;;;;;;;0.70;0.50;;;10.80;99.90;;;;;;4962206;28;20671;-71
2022/05/29 04:33:02;;;;;;;0.93;0.63;;;10.90;99.90;;;;;;4961962;28;20197;-71
2022/05/29 04:35:38;;;;;;;0.70;0.50;;;10.90;99.90;;;;;;4960364;28;20166;-70
2022/05/29 04:38:04;;;;;;;0.70;0.60;;;10.90;99.90;;;;;;4977320;28;20429;-71
2022/05/29 04:40:31;;;;;;;0.70;0.50;;;11.00;99.90;;;;;;4960396;28;20979;-70
2022/05/29 04:42:56;;;;;;;0.70;0.50;;;11.00;99.90;;;;;;4961838;28;20406;-71
2022/05/29 04:45:22;;;;;;;0.70;0.50;;;11.10;99.90;;;;;;4964084;28;20400;-71
2022/05/29 04:47:48;;;;;;;0.70;0.50;;;11.20;99.90;;;;;;4960693;28;20233;-70
2022/05/29 04:50:14;;;;;;;0.80;0.60;;;11.30;99.90;;;;;;4959750;28;20200;-71
2022/05/29 04:52:40;;;;;;;0.70;0.50;;;11.40;99.90;;;;;;4959665;28;20469;-70
2022/05/29 04:55:06;;;;;;;1.00;0.60;;;11.50;99.90;;;;;;4960567;28;20406;-71
2022/05/29 04:57:32;;;;;;;0.70;0.60;;;11.50;99.90;;;;;;4961515;28;20525;-70
2022/05/29 04:59:58;;;;;;;0.70;0.50;;;11.60;99.90;;;;;;4961444;28;20425;-71
2022/05/29 05:02:24;;;;;;;0.70;0.50;;;11.70;99.90;;;;;;4961062;28;20171;-71
2022/05/29 05:04:50;;;;;;;0.80;0.70;;;11.70;99.90;;;;;;4960838;28;20174;-71
2022/05/29 05:07:16;;;;;;;1.50;1.40;;;11.90;99.90;;;;;;4961277;28;20493;-70
2022/05/29 05:09:41;;;;;;;0.70;0.50;;;12.00;99.90;;;;;;4961452;28;20422;-71
2022/05/29 05:12:08;;;;;;;0.70;0.50;;;12.00;99.90;;;;;;4959536;28;20198;-71
2022/05/29 05:14:34;;;;;;;0.70;0.50;;;12.10;99.90;;;;;;4962039;28;20186;-71
2022/05/29 05:17:00;;;;;;;0.80;0.50;;;12.20;99.90;;;;;;4961060;28;21069;-70
2022/05/29 05:19:26;;;;;;;0.80;0.50;;;12.20;99.90;;;;;;4961496;28;20450;-71
2022/05/29 05:21:51;;;;;;;0.80;0.70;;;12.30;99.90;;;;;;4960391;28;20208;-71
2022/05/29 05:24:17;;;;;;;0.70;0.50;;;12.40;99.90;;;;;;4960495;28;20185;-71
2022/05/29 05:26:43;;;;;;;0.80;0.50;;;12.50;99.90;;;;;;4961376;28;20166;-70
2022/05/29 05:29:08;;;;;;;0.80;0.70;;;12.60;99.90;;;;;;4959864;28;20189;-70
2022/05/29 05:31:34;;;;;;;0.70;0.50;;;12.70;99.90;;;;;;4962526;28;20237;-71
2022/05/29 05:34:00;;;;;;;0.80;0.60;;;12.90;99.90;;;;;;4962659;28;20198;-71
2022/05/29 05:36:26;;;;;;;0.80;0.50;;;13.00;99.90;;;;;;4962541;28;20173;-70
2022/05/29 05:38:53;;;;;;;0.87;0.60;;;13.10;99.90;;;;;;4962529;28;20193;-71
2022/05/29 05:41:20;;;;;;;1.00;0.70;;;13.20;99.90;;;;;;4961857;28;20457;-70
2022/05/29 05:43:46;;;;;;;0.70;0.50;;;13.30;99.90;;;;;;4961334;28;20444;-70
2022/05/29 05:46:14;;;;;;;1.33;1.00;;;13.40;99.90;;;;;;4964371;28;20416;-70
2022/05/29 05:48:40;;;;;;;0.77;0.57;;;13.50;99.90;;;;;;4967677;28;20410;-71
2022/05/29 05:51:07;;;;;;;1.00;0.90;;;13.50;99.90;;;;;;4964952;28;20437;-71
2022/05/29 05:53:34;;;;;;;0.90;0.70;;;13.60;99.90;;;;;;4962591;28;20468;-70
2022/05/29 05:56:11;;;;;;;0.83;0.57;;;13.70;99.90;;;;;;4964642;28;20417;-70
2022/05/29 05:58:38;;;;;;;0.80;0.50;;;13.90;99.90;;;;;;4964337;28;20414;-71
2022/05/29 06:01:13;;;;;;;1.23;0.70;;;14.20;99.90;;;;;;4979430;28;20449;-71
2022/05/29 06:03:39;;;;;;;0.83;0.70;;;14.40;99.90;;;;;;4965473;28;20911;-71
2022/05/29 06:06:05;;;;;;;0.80;0.60;;;14.70;99.90;;;;;;4966766;28;20433;-71
2022/05/29 06:08:32;;;;;;;0.90;0.67;;;14.90;99.90;;;;;;4967934;28;20438;-71
2022/05/29 06:10:58;;;;;;;0.80;0.50;;;15.10;99.90;;;;;;4968361;28;20434;-71
2022/05/29 06:13:23;;;;;;;0.80;0.50;;;15.30;99.90;;;;;;4967535;28;20475;-71
2022/05/29 06:15:49;;;;;;;1.10;0.63;;;15.50;99.90;;;;;;4967210;28;20509;-72
2022/05/29 06:18:16;;;;;;;0.80;0.50;;;15.60;99.90;;;;;;4967588;28;20227;-71
2022/05/29 06:20:42;;;;;;;0.80;0.50;;;15.80;99.90;;;;;;4967097;28;20226;-70
2022/05/29 06:23:09;;;;;;;1.00;0.90;;;15.90;99.90;;;;;;4967467;28;20521;-70
2022/05/29 06:25:35;;;;;;;0.80;0.53;;;16.00;99.90;;;;;;4967021;28;20428;-71
2022/05/29 06:28:01;;;;;;;0.90;0.70;;;16.10;99.90;;;;;;4966761;28;20454;-71
2022/05/29 06:30:28;;;;;;;0.80;0.60;;;16.30;99.90;;;;;;4968023;28;20194;-71
2022/05/29 06:32:54;;;;;;;0.80;0.60;;;16.40;99.90;;;;;;4967011;28;20465;-71
2022/05/29 06:35:19;;;;;;;0.80;0.60;;;16.40;99.90;;;;;;4967862;28;20416;-71
2022/05/29 06:37:45;;;;;;;0.80;0.50;;;16.50;99.90;;;;;;4966917;28;20233;-71
2022/05/29 06:40:12;;;;;;;0.80;0.50;;;16.50;99.90;;;;;;4967517;28;20218;-70
2022/05/29 06:42:38;;;;;;;0.80;0.60;;;16.50;99.90;;;;;;4965823;28;20173;-71
2022/05/29 06:45:05;;;;;;;0.73;0.57;;;16.60;99.90;;;;;;4966036;28;20418;-71
2022/05/29 06:47:33;;;;;;;0.80;0.60;;;16.70;99.90;;;;;;4985795;28;20899;-71
2022/05/29 06:49:59;;;;;;;0.80;0.60;;;16.80;99.90;;;;;;4972541;28;20429;-75
2022/05/29 06:52:25;;;;;;;0.80;0.50;;;17.00;99.90;;;;;;4972671;28;20453;-70
2022/05/29 06:54:50;;;;;;;0.80;0.60;;;17.00;99.90;;;;;;4971187;28;20478;-71
2022/05/29 06:57:36;;;;;;;0.80;0.60;;;17.10;99.90;;;;;;4970785;28;20186;-71
2022/05/29 07:08:01;;;;;;;3.30;1.30;;;17.40;99.90;;;;;;4969336;28;20472;-71
2022/05/29 07:10:29;;;;;;;0.90;0.70;;;17.50;99.90;;;;;;4967247;29;20442;-71
2022/05/29 07:12:56;;;;;;;0.80;0.67;;;17.70;99.90;;;;;;4968442;28;20480;-71
2022/05/29 07:15:22;;;;;;;0.93;0.73;;;17.80;99.90;;;;;;4970476;28;20495;-71
2022/05/29 07:17:48;;;;;;;1.00;0.80;;;17.80;99.90;;;;;;4965786;28;20488;-71
2022/05/29 07:20:15;;;;;;;0.90;0.80;;;17.70;99.90;;;;;;4971115;28;20441;-70
2022/05/29 07:22:43;;;;;;;2.03;0.80;;;17.60;99.90;;;;;;4971347;28;20174;-71
2022/05/29 07:25:11;;;;;;;0.80;0.63;;;17.40;99.90;;;;;;4970027;28;20413;-71
2022/05/29 07:27:36;;;;;;;1.30;0.93;;;17.30;99.90;;;;;;4971493;28;20497;-71
2022/05/29 07:30:03;;;;;;;1.80;1.20;;;17.20;99.90;;;;;;4986325;28;20429;-69
2022/05/29 07:32:30;;;;;;;0.80;0.60;;;17.00;99.90;;;;;;4987037;28;20690;-70
2022/05/29 07:34:56;;;;;;;1.20;0.80;;;16.80;99.90;;;;;;4972488;28;20481;-71
2022/05/29 07:37:22;;;;;;;1.50;1.20;;;16.70;99.90;;;;;;4971583;29;20414;-70
2022/05/29 07:39:50;;;;;;;0.80;0.70;;;16.50;99.90;;;;;;4970709;29;20481;-70
2022/05/29 07:45:02;;;;;;;1.20;0.87;;;16.20;99.90;;;;;;4972230;29;20458;-71
2022/05/29 07:47:34;;;;;;;1.20;0.60;;;16.10;99.90;;;;;;4970862;29;20417;-71
2022/05/29 07:50:00;;;;;;;0.90;0.60;;;16.00;99.90;;;;;;4971745;29;20448;-70
2022/05/29 07:52:26;;;;;;;0.80;0.50;;;15.90;99.90;;;;;;4970223;28;20453;-70
2022/05/29 07:54:52;;;;;;;0.83;0.73;;;15.90;99.90;;;;;;4986988;28;20171;-71
2022/05/29 07:57:18;;;;;;;0.80;0.70;;;15.90;99.90;;;;;;4970662;28;20485;-70
2022/05/29 07:59:44;;;;;;;1.00;0.80;;;15.90;99.90;;;;;;4971878;28;20433;-71
2022/05/29 08:02:09;;;;;;;0.83;0.60;;;15.90;99.90;;;;;;4970618;29;20418;-70
2022/05/29 08:04:35;;;;;;;0.80;0.50;;;16.00;99.90;;;;;;4971438;29;20185;-70
2022/05/29 08:07:01;;;;;;;0.90;0.70;;;16.20;99.90;;;;;;4972296;28;20182;-71
2022/05/29 08:09:27;;;;;;;0.80;0.50;;;16.40;99.90;;;;;;4964984;29;20441;-74
2022/05/29 08:11:52;;;;;;;0.80;0.50;;;16.60;99.90;;;;;;4974139;28;20874;-75
2022/05/29 08:14:18;;;;;;;0.80;0.60;;;16.80;99.90;;;;;;4960560;28;20177;-72
2022/05/29 08:16:44;;;;;;;0.80;0.60;;;16.90;99.90;;;;;;4966303;28;20217;-71
2022/05/29 08:19:09;;;;;;;1.10;0.60;;;16.90;99.90;;;;;;4967817;28;20237;-71
2022/05/29 08:21:35;;;;;;;0.80;0.60;;;17.00;99.90;;;;;;4968795;28;20644;-70
2022/05/29 08:32:14;;;;;;;0.80;0.50;;;18.10;99.90;;;;;;4965164;29;20484;-71
2022/05/29 08:34:42;;;;;;;0.97;0.60;;;18.60;99.90;;;;;;4963071;28;20923;-71
2022/05/29 08:37:07;;;;;;;0.90;0.80;;;19.20;99.90;;;;;;4976855;28;20410;-71
2022/05/29 08:39:35;;;;;;;0.80;0.60;;;20.20;99.90;;;;;;4959956;28;20950;-72
2022/05/29 08:42:01;;;;;;;0.80;0.60;;;21.60;99.90;;;;;;4959246;28;20178;-72
2022/05/29 08:44:39;;;;;;;0.80;0.70;;;23.40;99.90;;;;;;4959125;28;20548;-72
2022/05/29 08:47:05;;;;;;;0.80;0.60;;;25.10;99.90;;;;;;4959074;28;20185;-71
2022/05/29 08:49:37;;;;;;;0.90;0.60;;;26.80;99.90;;;;;;4962681;28;21013;-72
2022/05/29 08:52:11;;;;;;;1.00;0.80;;;28.90;99.90;;;;;;4963898;28;20198;-72
2022/05/29 08:55:01;;;;;;;1.10;0.70;;;29.80;93.20;;;;;;4961377;28;20481;-72
2022/05/29 08:57:55;;;;;;;0.90;0.60;;;29.80;87.00;;;;;;4961668;28;20429;-71
2022/05/29 09:00:43;;;;;;;1.57;1.00;;;29.30;80.40;;;;;;4955311;29;20509;-71
2022/05/29 09:03:27;;;;;;;0.80;0.60;;;28.60;75.70;;;;;;4963598;28;20549;-71
2022/05/29 09:06:11;;;;;;;0.80;0.70;;;27.90;72.10;;;;;;4963527;29;20402;-71
2022/05/29 09:08:48;;;;;;;0.80;0.63;;;27.20;69.50;;;;;;4964770;28;20413;-70
2022/05/29 09:11:28;;;;;;;0.80;0.60;;;26.50;67.70;;;;;;4962963;28;20950;-71
2022/05/29 09:13:56;;;;;;;0.83;0.70;;;27.40;72.50;;;;;;4977920;28;20426;-72
2022/05/29 09:16:24;;;;;;;1.20;0.93;;;29.90;73.60;;;;;;4957538;28;20437;-72
2022/05/29 09:19:08;;;;;;;3.10;1.10;;;32.80;68.00;;;;;;4955885;28;20437;-72
2022/05/29 09:21:56;;;;;;;1.17;1.03;;;35.00;55.50;;;;;;4971021;28;20421;-72
2022/05/29 09:24:42;;;;;;;1.20;1.10;;;37.30;45.50;;;;;;4957505;28;20414;-73
2022/05/29 09:27:10;;;;;;;1.60;1.23;;;39.00;40.70;;;;;;4952732;29;20428;-72
2022/05/29 09:29:36;;;;;;;1.07;0.97;;;41.00;38.50;;;;;;4955859;28;20438;-73
2022/05/29 09:32:05;;;;;;;1.13;1.03;;;42.80;37.50;;;;;;4955148;29;20533;-73
2022/05/29 09:34:31;;;;;;;1.10;1.00;;;44.60;35.20;;;;;;4955421;28;20162;-71
2022/05/29 09:37:23;;;;;;;1.03;0.93;;;45.40;33.80;;;;;;4954641;28;20852;-71
2022/05/29 09:39:55;;;;;;;0.97;0.87;;;44.40;32.30;;;;;;4955116;29;20442;-70
2022/05/29 09:42:38;;;;;;;1.10;1.00;;;42.30;30.70;;;;;;4959001;28;20406;-71
2022/05/29 09:45:06;;;;;;;1.03;0.93;;;40.40;30.00;;;;;;4960317;28;20417;-72
2022/05/29 09:50:17;;;;;;;1.20;0.80;;;36.20;30.80;;;;;;4959579;29;20424;-71
2022/05/29 09:52:44;;;;;;;1.47;0.77;;;34.30;31.60;;;;;;4962014;28;20525;-72
2022/05/29 09:55:26;;;;;;;1.00;0.80;;;32.60;32.20;;;;;;4962992;28;20169;-72
2022/05/29 09:57:59;;;;;;;0.90;0.70;;;30.90;33.00;;;;;;4962615;28;20414;-71
2022/05/29 10:00:57;;;;;;;1.00;0.80;;;29.50;33.80;;;;;;4963670;29;20418;-72
2022/05/29 10:03:36;;;;;;;1.20;1.10;;;28.00;34.70;;;;;;4957727;28;20421;-71
2022/05/29 10:06:14;;;;;;;0.80;0.60;;;26.70;35.70;;;;;;4954791;29;20414;-70
2022/05/29 10:08:40;;;;;;;0.80;0.60;;;25.70;36.90;;;;;;4955417;29;20500;-71
2022/05/29 10:11:22;;;;;;;0.80;0.60;;;24.70;37.90;;;;;;4954651;29;20462;-71
2022/05/29 10:13:49;;;;;;;0.80;0.60;;;23.90;39.00;;;;;;4954425;29;20414;-71
2022/05/29 10:16:29;;;;;;;0.90;0.63;;;23.20;39.90;;;;;;4954958;29;20406;-71
2022/05/29 10:18:54;;;;;;;0.80;0.60;;;22.70;41.10;;;;;;4955010;29;20441;-70
2022/05/29 10:21:32;;;;;;;0.80;0.60;;;22.30;42.10;;;;;;4954228;28;20472;-71
2022/05/29 10:24:22;;;;;;;0.80;0.50;;;22.10;43.10;;;;;;4954204;28;20644;-71
2022/05/29 10:26:55;;;;;;;0.80;0.60;;;22.30;44.30;;;;;;4954159;29;20484;-70
2022/05/29 10:29:29;;;;;;;0.80;0.60;;;22.60;45.00;;;;;;4955301;29;20406;-70
2022/05/29 10:31:56;;;;;;;5.13;0.70;;;23.00;45.50;;;;;;4954618;29;20449;-71
2022/05/29 10:34:34;;;;;;;0.80;0.50;;;23.10;45.50;;;;;;4956333;28;20950;-71
2022/05/29 10:37:01;;;;;;;0.80;0.70;;;23.00;45.70;;;;;;4957552;29;20398;-71
2022/05/29 10:39:31;;;;;;;0.80;0.50;;;23.00;46.00;;;;;;4955258;28;20438;-71
2022/05/29 10:41:58;;;;;;;0.80;0.60;;;23.00;46.40;;;;;;4956185;28;20398;-71
2022/05/29 10:44:44;;;;;;;0.80;0.60;;;23.40;47.30;;;;;;4955036;28;20870;-71
2022/05/29 10:47:27;;;;;;;1.00;0.73;;;24.60;48.00;;;;;;4954730;28;20809;-71
2022/05/29 10:50:17;;;;;;;0.87;0.60;;;26.50;48.90;;;;;;4955270;29;20425;-71
2022/05/29 10:52:48;;;;;;;1.00;0.90;;;27.80;47.00;;;;;;4971403;28;20457;-71
2022/05/29 10:55:22;;;;;;;1.03;0.93;;;28.50;46.50;;;;;;4959209;29;20440;-72
2022/05/29 10:57:51;;;;;;;1.10;1.00;;;28.70;45.30;;;;;;4956311;29;20432;-72
2022/05/29 11:00:47;;;;;;;0.80;0.60;;;28.40;44.70;;;;;;4957325;29;20422;-71
2022/05/29 11:03:50;;;;;;;0.93;0.60;;;28.00;44.50;;;;;;4957759;28;20420;-72
2022/05/29 11:06:45;;;;;;;0.80;0.70;;;27.40;44.40;;;;;;4973469;28;20405;-71
2022/05/29 11:09:35;;;;;;;0.90;0.80;;;26.80;44.60;;;;;;4956320;29;20477;-71
2022/05/29 11:12:24;;;;;;;0.80;0.60;;;26.50;45.10;;;;;;4955492;29;20604;-71
2022/05/29 11:15:19;;;;;;;0.80;0.70;;;26.50;45.80;;;;;;4957024;29;20425;-71
2022/05/29 11:18:09;;;;;;;0.80;0.60;;;26.30;45.90;;;;;;4959920;28;20856;-72
2022/05/29 11:20:47;;;;;;;0.90;0.80;;;26.20;46.20;;;;;;4958821;29;20793;-71
2022/05/29 11:23:44;;;;;;;0.90;0.60;;;26.00;46.40;;;;;;4958504;29;20409;-71
2022/05/29 11:26:22;;;;;;;0.93;0.70;;;26.10;46.80;;;;;;4959380;29;20425;-71
2022/05/29 11:29:15;;;;;;;0.80;0.67;;;27.10;47.10;;;;;;4956926;29;20445;-72
2022/05/29 11:32:15;;;;;;;0.93;0.80;;;28.90;48.10;;;;;;4954349;28;20425;-70
2022/05/29 11:34:59;;;;;;;0.90;0.70;;;32.10;46.80;;;;;;4956331;29;20420;-71
2022/05/29 11:37:59;;;;;;;1.00;0.70;;;33.10;43.90;;;;;;4957497;29;20402;-71
2022/05/29 11:40:31;;;;;;;1.10;0.70;;;32.80;41.10;;;;;;4957669;29;20417;-71
2022/05/29 11:43:15;;;;;;;2.00;0.80;;;32.20;40.40;;;;;;4971702;28;20754;-70
2022/05/29 11:51:40;;;;;;;0.90;0.70;;;31.20;40.50;;;;;;4957562;29;20421;-72
2022/05/29 11:54:32;;;;;;;0.87;0.70;;;30.90;41.20;;;;;;4958173;28;20480;-71
2022/05/29 11:57:08;;;;;;;0.80;0.60;;;30.60;40.80;;;;;;4958839;28;20740;-72
2022/05/29 11:59:53;;;;;;;0.90;0.60;;;30.20;40.90;;;;;;4960180;29;20469;-71
2022/05/29 12:02:48;;;;;;;0.90;0.60;;;29.80;41.00;;;;;;4959335;29;20464;-71
2022/05/29 12:05:28;;;;;;;0.90;0.80;;;29.30;41.20;;;;;;4962186;28;20413;-72
2022/05/29 12:07:58;;;;;;;0.87;0.70;;;29.10;41.70;;;;;;4959642;29;20401;-71
2022/05/29 12:10:28;;;;;;;0.80;0.60;;;29.20;41.70;;;;;;4960641;29;20430;-71
2022/05/29 12:13:02;;;;;;;0.93;0.77;;;29.60;42.00;;;;;;4960117;29;20453;-71
2022/05/29 12:15:30;;;;;;;0.90;0.60;;;30.70;42.70;;;;;;4958177;29;20404;-72
2022/05/29 12:18:07;;;;;;;1.03;0.93;;;33.20;42.50;;;;;;4956954;28;20801;-72
2022/05/29 12:21:02;;;;;;;0.90;0.70;;;35.10;38.40;;;;;;4957934;28;20418;-72
2022/05/29 12:23:35;;;;;;;1.30;1.20;;;35.80;37.20;;;;;;4958243;29;20476;-71
2022/05/29 12:26:08;;;;;;;1.00;0.90;;;35.90;36.80;;;;;;4960962;28;20483;-72
2022/05/29 12:29:09;;;;;;;1.73;0.90;;;35.80;36.80;;;;;;4961453;28;20406;-71
2022/05/29 12:31:49;;;;;;;0.90;0.70;;;36.90;37.20;;;;;;4958909;29;20946;-72
2022/05/29 12:34:21;;;;;;;1.00;0.90;;;38.80;36.20;;;;;;4958045;29;20413;-72
2022/05/29 12:37:21;;;;;;;0.90;0.80;;;38.60;34.60;;;;;;4975428;28;20406;-72
2022/05/29 12:40:06;;;;;;;1.00;0.87;;;37.90;34.10;;;;;;4960353;28;20486;-72
2022/05/29 12:43:02;;;;;;;1.00;0.80;;;36.90;33.40;;;;;;4959490;28;20851;-72
2022/05/29 12:45:48;;;;;;;1.10;1.00;;;36.20;33.30;;;;;;4958254;28;20435;-71
2022/05/29 12:48:57;;;;;;;1.10;0.90;;;36.40;33.40;;;;;;4957767;29;20426;-72
2022/05/29 12:51:46;;;;;;;1.10;1.00;;;37.80;33.80;;;;;;4975956;28;20438;-72
2022/05/29 12:54:37;;;;;;;1.00;0.90;;;39.90;33.60;;;;;;4973663;28;20430;-72
2022/05/29 12:57:20;;;;;;;0.90;0.80;;;41.70;33.10;;;;;;4956285;29;20418;-72
2022/05/29 13:00:23;;;;;;;0.93;0.83;;;42.50;32.40;;;;;;4956511;29;20853;-72
2022/05/29 13:03:27;;;;;;;1.40;1.10;;;42.60;32.00;;;;;;4958179;28;20460;-71
2022/05/29 13:06:23;;;;;;;1.00;0.90;;;41.00;31.30;;;;;;4958702;29;20425;-71
2022/05/29 13:09:14;;;;;;;0.90;0.80;;;39.30;31.20;;;;;;4954056;29;20428;-70
2022/05/29 13:11:51;;;;;;;1.17;0.80;;;37.40;31.50;;;;;;4957339;29;20420;-72
2022/05/29 13:14:19;;;;;;;0.90;0.70;;;35.70;32.30;;;;;;4959873;28;20402;-71
2022/05/29 13:16:45;;;;;;;0.90;0.70;;;34.20;33.00;;;;;;4957917;29;20430;-70
2022/05/29 13:19:14;;;;;;;0.90;0.60;;;33.50;34.30;;;;;;4959447;29;20418;-71
2022/05/29 13:22:01;;;;;;;0.90;0.70;;;33.10;35.40;;;;;;4957654;29;20469;-71
2022/05/29 13:24:59;;;;;;;1.10;0.80;;;32.60;35.70;;;;;;4959956;29;20421;-71
2022/05/29 13:27:25;;;;;;;1.20;1.10;;;32.20;36.30;;;;;;4957990;28;20410;-69
2022/05/29 13:29:56;;;;;;;0.90;0.70;;;32.00;36.70;;;;;;4957364;29;20430;-71
2022/05/29 13:32:24;;;;;;;1.00;0.70;;;31.50;36.70;;;;;;4958882;28;20220;-70
2022/05/29 13:34:51;;;;;;;0.90;0.70;;;31.20;36.80;;;;;;4959594;29;20413;-71
2022/05/29 13:37:39;;;;;;;0.90;0.60;;;31.00;37.10;;;;;;4958980;29;20438;-71
2022/05/29 13:40:30;;;;;;;2.10;0.80;;;30.70;37.20;;;;;;4959318;28;20426;-71
2022/05/29 13:43:22;;;;;;;1.00;0.80;;;30.40;37.50;;;;;;4958677;28;20442;-71
2022/05/29 13:46:06;;;;;;;1.00;0.80;;;30.00;37.50;;;;;;4956998;28;20426;-71
2022/05/29 13:48:32;;;;;;;0.90;0.67;;;29.60;37.70;;;;;;4959674;29;20417;-70
2022/05/29 13:51:26;;;;;;;1.00;0.60;;;29.20;37.90;;;;;;4959457;29;20436;-71
2022/05/29 13:54:07;;;;;;;0.90;0.60;;;28.90;38.40;;;;;;4960480;29;20182;-71
2022/05/29 13:57:05;;;;;;;0.90;0.63;;;28.70;38.60;;;;;;4956706;28;20406;-71
2022/05/29 14:05:31;;;;;;;0.80;0.60;;;27.60;38.40;;;;;;4958992;29;20903;-71